Time;durP1;ratioP1;P1;durP2;ratioP2;P2;SDS_P1;SDS_P2;PMS_P1;PMS_P2;Temp;Humidity;BMP_temperature;BMP_pressure;BME280_temperature;BME280_humidity;BME280_pressure;Samples;Min_cycle;Max_cycle;Signal;HPM_P1;HPM_P2
2022/07/18 00:00:38;;;;;;;26.60;25.10;;;18.90;57.80;;;;;;4969833;28;20558;-71
2022/07/18 00:03:05;;;;;;;26.30;24.93;;;18.90;57.80;;;;;;4967973;28;20507;-71
2022/07/18 00:05:32;;;;;;;26.73;25.30;;;18.80;58.10;;;;;;4966593;28;20459;-71
2022/07/18 00:07:59;;;;;;;26.50;24.93;;;18.80;57.90;;;;;;4970295;28;20458;-71
2022/07/18 00:10:27;;;;;;;26.70;25.00;;;18.80;58.00;;;;;;4967464;28;21188;-71
2022/07/18 00:12:54;;;;;;;27.10;25.60;;;18.80;58.20;;;;;;4968574;28;20562;-71
2022/07/18 00:15:21;;;;;;;27.17;25.67;;;18.70;58.30;;;;;;4967810;28;20558;-70
2022/07/18 00:17:48;;;;;;;26.47;25.07;;;18.80;58.10;;;;;;4969376;28;20455;-72
2022/07/18 00:20:15;;;;;;;26.10;24.60;;;18.70;58.20;;;;;;4970729;28;20455;-72
2022/07/18 00:22:42;;;;;;;25.67;24.30;;;18.70;58.10;;;;;;4966402;28;20483;-73
2022/07/18 00:25:09;;;;;;;25.23;23.87;;;18.60;58.30;;;;;;4967423;28;20478;-71
2022/07/18 00:27:37;;;;;;;25.60;24.30;;;18.60;58.60;;;;;;4968241;28;20550;-71
2022/07/18 00:30:05;;;;;;;26.90;25.23;;;18.50;58.80;;;;;;4969512;28;20637;-71
2022/07/18 00:32:32;;;;;;;26.50;25.10;;;18.30;59.10;;;;;;4970470;28;20538;-71
2022/07/18 00:34:59;;;;;;;26.17;24.77;;;18.30;59.30;;;;;;4969287;28;21016;-70
2022/07/18 00:37:26;;;;;;;26.30;24.90;;;18.40;58.90;;;;;;4964385;28;20463;-71
2022/07/18 00:39:54;;;;;;;25.33;24.03;;;18.30;59.00;;;;;;4962965;28;20615;-71
2022/07/18 00:42:21;;;;;;;26.33;24.87;;;18.30;59.20;;;;;;4967333;28;20483;-71
2022/07/18 00:44:53;;;;;;;25.50;24.20;;;18.30;58.70;;;;;;4968303;28;20483;-71
2022/07/18 00:47:21;;;;;;;25.90;24.60;;;18.30;58.80;;;;;;4968938;28;20544;-71
2022/07/18 00:49:48;;;;;;;25.90;24.40;;;18.30;58.80;;;;;;4962456;28;20534;-71
2022/07/18 00:52:15;;;;;;;25.80;24.20;;;18.30;58.80;;;;;;4968781;28;20629;-71
2022/07/18 00:54:41;;;;;;;25.73;24.33;;;18.10;59.00;;;;;;4969796;28;21028;-71
2022/07/18 00:57:09;;;;;;;25.90;24.40;;;18.20;58.90;;;;;;4966651;28;20455;-71
2022/07/18 01:02:21;;;;;;;25.83;24.50;;;18.10;59.20;;;;;;4949309;28;21123;-70
2022/07/18 01:04:48;;;;;;;25.60;24.10;;;18.10;59.30;;;;;;4969572;28;20609;-71
2022/07/18 01:07:15;;;;;;;25.50;24.10;;;18.00;59.50;;;;;;4966921;28;20459;-71
2022/07/18 01:09:42;;;;;;;25.30;23.83;;;18.00;59.60;;;;;;4970354;28;20606;-71
2022/07/18 01:12:10;;;;;;;25.77;24.37;;;17.90;59.80;;;;;;4968109;28;20830;-70
2022/07/18 01:14:38;;;;;;;26.20;24.67;;;17.70;60.20;;;;;;4970191;28;20554;-71
2022/07/18 01:17:14;;;;;;;25.47;23.97;;;17.60;60.50;;;;;;4962527;28;20447;-70
2022/07/18 01:19:42;;;;;;;25.87;24.40;;;17.60;60.50;;;;;;4969475;28;20483;-70
2022/07/18 01:22:10;;;;;;;26.37;24.87;;;17.60;60.60;;;;;;4967909;28;20830;-71
2022/07/18 01:24:38;;;;;;;27.37;25.60;;;17.70;60.60;;;;;;4969482;28;20490;-71
2022/07/18 01:27:05;;;;;;;26.70;25.20;;;17.70;60.30;;;;;;4969045;28;20463;-71
2022/07/18 01:29:32;;;;;;;27.30;25.70;;;17.70;60.50;;;;;;4966301;28;20489;-71
2022/07/18 01:32:05;;;;;;;25.83;24.33;;;17.70;60.40;;;;;;4968751;28;20471;-70
2022/07/18 01:34:32;;;;;;;25.47;23.97;;;17.70;60.10;;;;;;4968958;28;20485;-71
2022/07/18 01:36:59;;;;;;;24.80;23.50;;;17.60;60.00;;;;;;4966117;28;20555;-71
2022/07/18 01:39:27;;;;;;;25.23;23.73;;;17.50;60.20;;;;;;4968212;28;20527;-71
2022/07/18 01:41:57;;;;;;;26.30;24.80;;;17.60;60.20;;;;;;4967731;28;20490;-71
2022/07/18 01:44:24;;;;;;;26.07;24.60;;;17.60;60.40;;;;;;4967625;28;20479;-71
2022/07/18 01:46:51;;;;;;;26.43;25.03;;;17.60;59.90;;;;;;4965678;28;20463;-71
2022/07/18 01:49:17;;;;;;;26.27;24.77;;;17.50;60.30;;;;;;4969062;28;20909;-71
2022/07/18 01:51:46;;;;;;;25.30;24.00;;;17.50;60.60;;;;;;4967403;28;20470;-71
2022/07/18 01:54:14;;;;;;;25.73;24.30;;;17.40;60.20;;;;;;4967605;28;20474;-71
2022/07/18 01:56:42;;;;;;;25.77;24.37;;;17.30;61.10;;;;;;4966893;28;20502;-70
2022/07/18 01:59:09;;;;;;;25.80;24.40;;;17.30;60.90;;;;;;4969356;28;20823;-71
2022/07/18 02:01:36;;;;;;;26.60;25.10;;;17.30;60.80;;;;;;4966453;28;20463;-71
2022/07/18 02:04:03;;;;;;;25.40;24.07;;;17.30;60.70;;;;;;4967305;28;20569;-71
2022/07/18 02:06:30;;;;;;;25.07;23.67;;;17.40;60.50;;;;;;4963517;28;21247;-70
2022/07/18 02:08:57;;;;;;;24.47;23.17;;;17.30;60.30;;;;;;4968288;28;20635;-70
2022/07/18 02:11:24;;;;;;;25.17;23.73;;;17.30;60.50;;;;;;4968776;28;20878;-70
2022/07/18 02:13:52;;;;;;;26.00;24.50;;;17.20;61.00;;;;;;4968055;28;20825;-71
2022/07/18 02:16:19;;;;;;;24.53;23.00;;;17.20;61.20;;;;;;4966110;28;20543;-70
2022/07/18 02:18:46;;;;;;;25.93;24.43;;;17.20;61.30;;;;;;4967725;28;20477;-71
2022/07/18 02:21:14;;;;;;;25.60;24.20;;;17.20;61.50;;;;;;4967563;28;20503;-70
2022/07/18 02:23:41;;;;;;;27.30;25.80;;;17.10;61.30;;;;;;4967083;28;20467;-70
2022/07/18 02:26:09;;;;;;;26.47;25.17;;;17.20;60.80;;;;;;4966407;28;20550;-70
2022/07/18 02:28:36;;;;;;;25.37;23.87;;;17.20;60.70;;;;;;4970432;28;20554;-71
2022/07/18 02:31:05;;;;;;;24.80;23.40;;;17.10;60.90;;;;;;4970851;28;20471;-71
2022/07/18 02:33:32;;;;;;;25.47;24.03;;;17.10;60.80;;;;;;4966076;28;20470;-70
2022/07/18 02:35:59;;;;;;;25.47;23.93;;;17.00;60.80;;;;;;4971299;28;20463;-70
2022/07/18 02:38:26;;;;;;;25.00;23.50;;;16.80;61.30;;;;;;4969787;28;20517;-70
2022/07/18 02:40:54;;;;;;;26.70;25.20;;;16.80;61.40;;;;;;4971915;28;20549;-70
2022/07/18 02:43:20;;;;;;;26.70;25.20;;;16.70;61.50;;;;;;4971564;28;20554;-70
2022/07/18 02:45:47;;;;;;;26.30;24.90;;;16.70;61.50;;;;;;4970951;28;20602;-71
2022/07/18 02:48:16;;;;;;;28.60;27.00;;;16.80;61.60;;;;;;4971885;28;20569;-70
2022/07/18 02:50:42;;;;;;;25.63;24.13;;;16.70;61.80;;;;;;4972355;28;20562;-70
2022/07/18 02:53:09;;;;;;;26.57;25.00;;;16.80;62.00;;;;;;4971115;28;20557;-70
2022/07/18 02:55:36;;;;;;;27.20;25.60;;;16.70;62.00;;;;;;4972060;28;20493;-70
2022/07/18 02:58:03;;;;;;;27.33;25.93;;;16.60;62.30;;;;;;4970078;28;20542;-71
2022/07/18 03:00:30;;;;;;;25.67;24.17;;;16.50;62.20;;;;;;4973102;28;20575;-71
2022/07/18 03:02:57;;;;;;;26.20;24.80;;;16.50;62.60;;;;;;4969480;28;20469;-70
2022/07/18 03:05:25;;;;;;;28.93;27.43;;;16.50;62.70;;;;;;4973441;28;20490;-70
2022/07/18 03:07:52;;;;;;;28.87;27.13;;;16.50;62.50;;;;;;4965489;28;20591;-71
2022/07/18 03:10:19;;;;;;;27.27;25.77;;;16.50;62.60;;;;;;4972519;28;20474;-71
2022/07/18 03:12:46;;;;;;;26.50;24.90;;;16.50;62.70;;;;;;4970221;28;20473;-70
2022/07/18 03:15:13;;;;;;;26.50;25.00;;;16.50;62.70;;;;;;4973999;28;20984;-70
2022/07/18 03:17:40;;;;;;;28.20;26.60;;;16.50;62.70;;;;;;4966938;28;20467;-71
2022/07/18 03:20:08;;;;;;;29.53;27.70;;;16.50;62.60;;;;;;4969530;28;20894;-72
2022/07/18 03:22:36;;;;;;;26.20;24.80;;;16.50;62.50;;;;;;4970571;28;20486;-72
2022/07/18 03:25:03;;;;;;;27.30;25.80;;;16.40;62.80;;;;;;4971342;28;20577;-72
2022/07/18 03:27:30;;;;;;;28.47;26.97;;;16.40;63.20;;;;;;4967670;28;20550;-72
2022/07/18 03:29:57;;;;;;;28.60;26.80;;;16.30;63.50;;;;;;4969917;28;20514;-73
2022/07/18 03:32:24;;;;;;;27.33;25.80;;;16.40;63.40;;;;;;4964308;28;20509;-73
2022/07/18 03:34:51;;;;;;;28.63;26.93;;;16.40;63.70;;;;;;4972976;28;20538;-73
2022/07/18 03:37:18;;;;;;;27.00;25.20;;;16.30;63.50;;;;;;4967854;28;20575;-73
2022/07/18 03:39:46;;;;;;;27.13;25.53;;;16.20;63.70;;;;;;4970120;28;20569;-73
2022/07/18 03:42:13;;;;;;;27.90;26.30;;;16.10;63.90;;;;;;4969086;28;20935;-70
2022/07/18 03:44:40;;;;;;;28.00;26.30;;;16.10;64.00;;;;;;4971353;28;20474;-71
2022/07/18 03:47:07;;;;;;;27.10;25.60;;;16.20;64.00;;;;;;4969407;28;20547;-70
2022/07/18 03:49:34;;;;;;;27.47;25.77;;;16.20;64.00;;;;;;4969896;28;20901;-71
2022/07/18 03:52:01;;;;;;;29.80;28.00;;;16.20;64.00;;;;;;4971613;28;20463;-71
2022/07/18 03:54:28;;;;;;;27.13;25.53;;;16.30;64.00;;;;;;4969885;28;20455;-71
2022/07/18 03:56:56;;;;;;;31.27;29.57;;;16.30;64.10;;;;;;4968135;28;20541;-70
2022/07/18 03:59:23;;;;;;;32.10;30.30;;;16.30;64.20;;;;;;4972061;28;20569;-70
2022/07/18 04:01:50;;;;;;;29.63;27.83;;;16.20;64.60;;;;;;4968439;28;20501;-70
2022/07/18 04:04:17;;;;;;;27.80;26.20;;;16.10;64.70;;;;;;4969687;28;20498;-70
2022/07/18 04:06:44;;;;;;;28.80;27.30;;;16.20;64.60;;;;;;4969011;28;20908;-71
2022/07/18 04:09:11;;;;;;;27.93;26.23;;;16.40;64.40;;;;;;4968595;28;21252;-70
2022/07/18 04:11:38;;;;;;;27.20;25.70;;;16.50;64.00;;;;;;4970808;28;20463;-70
2022/07/18 04:14:06;;;;;;;28.37;26.77;;;16.60;63.70;;;;;;4970763;28;20554;-70
2022/07/18 04:16:33;;;;;;;29.77;27.87;;;16.60;63.50;;;;;;4960043;28;20463;-70
2022/07/18 04:19:00;;;;;;;27.50;25.93;;;16.50;63.70;;;;;;4969578;28;20557;-70
2022/07/18 04:21:27;;;;;;;29.07;27.00;;;16.70;63.50;;;;;;4970623;28;20519;-70
2022/07/18 04:23:54;;;;;;;26.90;25.40;;;16.80;63.40;;;;;;4968132;28;20558;-71
2022/07/18 04:26:21;;;;;;;32.17;30.17;;;16.90;63.30;;;;;;4967867;28;20514;-70
2022/07/18 04:28:48;;;;;;;28.70;27.10;;;17.00;63.10;;;;;;4968388;28;20486;-70
2022/07/18 04:31:17;;;;;;;28.53;26.73;;;17.10;62.90;;;;;;4969070;28;20547;-73
2022/07/18 04:33:44;;;;;;;28.07;26.40;;;17.20;62.90;;;;;;4967493;28;20583;-73
2022/07/18 04:36:11;;;;;;;28.03;26.33;;;17.20;62.80;;;;;;4968955;28;20553;-73
2022/07/18 04:38:38;;;;;;;29.43;27.83;;;17.20;63.30;;;;;;4970618;28;20483;-72
2022/07/18 04:41:05;;;;;;;33.00;31.10;;;17.30;62.80;;;;;;4964306;28;20499;-73
2022/07/18 04:43:32;;;;;;;27.00;25.50;;;17.30;62.80;;;;;;4966186;28;20977;-72
2022/07/18 04:45:59;;;;;;;27.00;25.50;;;17.30;62.80;;;;;;4966941;28;20475;-70
2022/07/18 04:48:27;;;;;;;28.90;27.17;;;17.20;63.00;;;;;;4967812;28;20574;-70
2022/07/18 04:50:54;;;;;;;29.83;28.23;;;17.20;63.30;;;;;;4969495;28;20533;-74
2022/07/18 04:53:21;;;;;;;30.20;28.60;;;17.20;63.60;;;;;;4969319;28;20498;-73
2022/07/18 04:55:48;;;;;;;27.50;25.77;;;17.30;63.50;;;;;;4968841;28;21300;-73
2022/07/18 04:58:15;;;;;;;26.70;25.30;;;17.50;63.40;;;;;;4962616;28;20938;-73
2022/07/18 05:00:42;;;;;;;32.13;30.23;;;17.60;63.20;;;;;;4966150;28;20558;-73
2022/07/18 05:03:09;;;;;;;29.63;27.93;;;17.80;62.70;;;;;;4964093;28;20502;-73
2022/07/18 05:05:38;;;;;;;29.80;28.20;;;17.90;62.40;;;;;;4971226;28;20541;-73
2022/07/18 05:08:05;;;;;;;27.17;25.47;;;18.00;62.10;;;;;;4969037;28;20479;-73
2022/07/18 05:10:33;;;;;;;29.60;27.70;;;18.20;61.90;;;;;;4967529;28;20463;-73
2022/07/18 05:13:01;;;;;;;28.87;26.80;;;18.40;61.40;;;;;;4967842;28;20481;-73
2022/07/18 05:15:28;;;;;;;31.70;29.90;;;18.50;61.30;;;;;;4960025;28;20462;-73
2022/07/18 05:17:55;;;;;;;29.75;27.75;;;18.60;60.80;;;;;;4966007;28;20463;-77
2022/07/18 05:20:24;;;;;;;27.67;26.10;;;18.60;60.80;;;;;;4964829;28;20295;-74
2022/07/18 05:22:53;;;;;;;27.57;25.97;;;18.80;60.90;;;;;;4965940;28;20487;-73
2022/07/18 05:25:21;;;;;;;27.67;26.00;;;18.90;60.70;;;;;;4968345;28;20488;-72
2022/07/18 05:27:48;;;;;;;28.00;26.30;;;19.00;60.20;;;;;;4964459;28;20573;-72
2022/07/18 05:30:16;;;;;;;26.47;25.07;;;19.20;60.20;;;;;;4969174;28;20631;-72
2022/07/18 05:32:44;;;;;;;27.50;26.00;;;19.40;59.20;;;;;;4964408;28;20540;-77
2022/07/18 05:35:12;;;;;;;26.40;24.90;;;19.60;59.10;;;;;;4963307;28;20503;-73
2022/07/18 05:37:40;;;;;;;27.50;25.70;;;19.70;58.90;;;;;;4968227;28;20207;-74
2022/07/18 05:40:11;;;;;;;27.80;26.20;;;19.90;58.70;;;;;;4970715;28;20511;-72
2022/07/18 05:42:37;;;;;;;30.47;28.40;;;20.00;58.70;;;;;;4968745;28;20469;-71
2022/07/18 05:45:06;;;;;;;29.93;28.00;;;20.10;58.50;;;;;;4968136;28;20482;-75
2022/07/18 05:47:33;;;;;;;30.97;29.10;;;20.20;58.30;;;;;;4969488;28;20540;-74
2022/07/18 05:50:00;;;;;;;30.20;28.60;;;20.30;57.90;;;;;;4963148;28;21093;-76
2022/07/18 05:52:27;;;;;;;28.60;26.90;;;20.50;57.40;;;;;;4965883;28;20836;-75
2022/07/18 05:54:54;;;;;;;32.00;30.20;;;20.50;57.10;;;;;;4966142;28;20494;-74
2022/07/18 05:57:22;;;;;;;30.23;28.33;;;20.60;56.20;;;;;;4969820;28;20464;-73
2022/07/18 05:59:49;;;;;;;30.67;28.97;;;20.60;56.90;;;;;;4966038;28;20491;-73
2022/07/18 06:02:16;;;;;;;32.87;30.97;;;20.70;57.20;;;;;;4970172;28;20557;-72
2022/07/18 06:04:44;;;;;;;29.33;27.73;;;20.80;55.90;;;;;;4973123;28;20460;-73
2022/07/18 06:07:10;;;;;;;28.53;26.73;;;20.90;56.10;;;;;;4974211;28;20886;-73
2022/07/18 06:09:37;;;;;;;31.70;29.70;;;21.00;56.00;;;;;;4972002;28;20567;-74
2022/07/18 06:12:06;;;;;;;28.53;26.73;;;21.10;55.20;;;;;;4972514;28;20465;-72
2022/07/18 06:14:34;;;;;;;29.77;27.87;;;21.30;55.10;;;;;;4969480;28;20491;-72
2022/07/18 06:17:01;;;;;;;31.93;30.03;;;21.40;55.00;;;;;;4973847;28;20566;-72
2022/07/18 06:19:28;;;;;;;31.07;29.20;;;21.40;54.30;;;;;;4975046;28;20641;-73
2022/07/18 06:21:55;;;;;;;29.10;27.10;;;21.60;54.10;;;;;;4971678;28;20491;-73
2022/07/18 06:24:22;;;;;;;29.40;27.70;;;21.70;54.00;;;;;;4974833;28;20462;-74
2022/07/18 06:26:49;;;;;;;29.00;27.20;;;21.80;53.50;;;;;;4972262;28;21066;-73
2022/07/18 06:29:16;;;;;;;31.40;29.50;;;21.90;53.70;;;;;;4969343;28;20495;-73
2022/07/18 06:31:45;;;;;;;31.20;29.10;;;22.10;53.40;;;;;;4959935;28;20504;-73
2022/07/18 06:34:12;;;;;;;27.87;26.27;;;22.20;53.60;;;;;;4973675;28;20498;-72
2022/07/18 06:36:39;;;;;;;29.20;27.43;;;22.20;52.70;;;;;;4970158;28;21017;-74
2022/07/18 06:39:10;;;;;;;28.67;27.00;;;22.30;52.30;;;;;;4971669;28;20566;-75
2022/07/18 06:41:39;;;;;;;33.40;31.50;;;22.40;51.70;;;;;;4972059;28;20468;-74
2022/07/18 06:44:06;;;;;;;32.67;30.67;;;22.60;51.90;;;;;;4973901;28;20459;-74
2022/07/18 06:46:33;;;;;;;30.90;29.10;;;22.60;51.70;;;;;;4969249;28;20564;-77
2022/07/18 06:49:01;;;;;;;32.20;30.30;;;22.70;51.40;;;;;;4970778;28;20517;-74
2022/07/18 06:51:29;;;;;;;31.43;29.53;;;22.70;51.20;;;;;;4971048;28;20497;-74
2022/07/18 06:53:56;;;;;;;28.93;26.93;;;22.80;51.10;;;;;;4972139;28;21006;-78
2022/07/18 06:56:23;;;;;;;33.70;31.80;;;23.00;50.60;;;;;;4971606;28;20459;-73
2022/07/18 06:58:50;;;;;;;29.77;27.83;;;23.00;50.60;;;;;;4971747;28;20502;-74
2022/07/18 07:01:18;;;;;;;33.10;31.13;;;23.10;50.50;;;;;;4969664;28;20465;-75
2022/07/18 07:03:46;;;;;;;29.80;28.10;;;23.10;50.40;;;;;;4970662;28;20524;-76
2022/07/18 07:06:18;;;;;;;30.70;28.80;;;23.10;50.60;;;;;;4971223;28;20582;-75
2022/07/18 07:08:45;;;;;;;28.40;26.40;;;23.20;50.40;;;;;;4972208;28;20986;-73
2022/07/18 07:11:12;;;;;;;31.73;29.10;;;23.30;50.50;;;;;;4969552;28;20967;-73
2022/07/18 07:13:39;;;;;;;29.10;27.33;;;23.30;50.80;;;;;;4969808;28;20498;-74
2022/07/18 07:16:06;;;;;;;29.00;27.30;;;23.50;50.60;;;;;;4967177;28;20455;-76
2022/07/18 07:18:33;;;;;;;30.27;28.40;;;23.60;50.30;;;;;;4972790;28;20483;-73
2022/07/18 07:21:00;;;;;;;30.07;28.17;;;23.70;50.50;;;;;;4970229;28;20543;-73
2022/07/18 07:23:29;;;;;;;31.07;29.07;;;23.80;50.00;;;;;;4963967;28;20593;-76
2022/07/18 07:25:56;;;;;;;30.23;28.37;;;23.80;49.60;;;;;;4969709;28;20936;-74
2022/07/18 07:28:23;;;;;;;29.83;27.80;;;24.00;49.40;;;;;;4968644;28;20582;-74
2022/07/18 07:30:50;;;;;;;30.57;28.10;;;24.10;49.10;;;;;;4969953;28;20463;-73
2022/07/18 07:33:17;;;;;;;32.33;30.37;;;24.20;49.00;;;;;;4969058;28;20475;-72
2022/07/18 07:35:49;;;;;;;32.57;30.53;;;24.30;48.90;;;;;;4970593;28;20463;-73
2022/07/18 07:38:18;;;;;;;30.13;28.17;;;24.50;48.30;;;;;;4969705;28;21237;-74
2022/07/18 07:40:48;;;;;;;31.77;29.57;;;24.70;48.30;;;;;;4969045;28;20481;-72
2022/07/18 07:43:17;;;;;;;31.80;29.90;;;24.80;47.80;;;;;;4970823;28;20467;-73
2022/07/18 07:45:46;;;;;;;32.07;30.00;;;24.80;47.10;;;;;;4966992;28;21324;-72
2022/07/18 07:48:13;;;;;;;30.10;28.03;;;25.00;47.20;;;;;;4969587;28;20565;-72
2022/07/18 07:50:40;;;;;;;33.20;31.10;;;25.20;46.40;;;;;;4969810;28;20467;-72
2022/07/18 07:53:08;;;;;;;34.33;32.17;;;25.30;47.30;;;;;;4970770;28;20549;-72
2022/07/18 07:55:37;;;;;;;34.23;32.00;;;25.40;47.40;;;;;;4968588;28;20471;-74
2022/07/18 07:58:06;;;;;;;35.03;32.70;;;25.50;46.90;;;;;;4964818;28;20499;-74
2022/07/18 08:00:33;;;;;;;32.10;30.07;;;25.50;46.10;;;;;;4967439;28;20535;-73
2022/07/18 08:03:03;;;;;;;34.50;32.40;;;25.60;46.30;;;;;;4968590;28;20508;-73
2022/07/18 08:05:33;;;;;;;33.03;30.57;;;25.70;46.60;;;;;;4969642;28;20488;-71
2022/07/18 08:08:01;;;;;;;32.40;30.50;;;25.80;46.10;;;;;;4966207;28;20468;-70
2022/07/18 08:10:29;;;;;;;31.03;29.03;;;26.00;45.20;;;;;;4965831;28;20517;-70
2022/07/18 08:12:56;;;;;;;33.33;31.23;;;26.10;45.30;;;;;;4969270;28;20561;-70
2022/07/18 08:15:24;;;;;;;32.27;30.37;;;26.10;46.30;;;;;;4971064;28;20462;-70
2022/07/18 08:17:51;;;;;;;32.17;30.27;;;26.20;44.60;;;;;;4963148;28;20588;-69
2022/07/18 08:20:19;;;;;;;32.83;30.70;;;26.30;45.20;;;;;;4967336;28;20455;-68
2022/07/18 08:22:56;;;;;;;34.90;32.80;;;26.30;45.60;;;;;;4967036;28;20468;-70
2022/07/18 08:25:24;;;;;;;31.10;28.80;;;26.40;45.60;;;;;;4967489;28;20459;-71
2022/07/18 08:27:51;;;;;;;32.43;30.13;;;26.50;45.90;;;;;;4966051;28;20473;-71
2022/07/18 08:30:18;;;;;;;32.47;30.37;;;26.50;46.30;;;;;;4971095;28;20527;-71
2022/07/18 08:32:47;;;;;;;35.57;33.30;;;26.60;46.70;;;;;;4970062;28;20516;-72
2022/07/18 08:35:14;;;;;;;32.27;30.13;;;26.50;46.90;;;;;;4970319;28;20565;-71
2022/07/18 08:37:41;;;;;;;34.23;32.03;;;26.50;46.80;;;;;;4976458;28;20466;-71
2022/07/18 08:40:11;;;;;;;33.63;30.33;;;26.60;46.90;;;;;;4970981;28;20876;-69
2022/07/18 08:42:39;;;;;;;33.30;30.97;;;26.60;46.80;;;;;;4971200;28;20501;-70
2022/07/18 08:45:07;;;;;;;37.20;34.70;;;26.70;46.70;;;;;;4966841;28;20483;-70
2022/07/18 08:47:35;;;;;;;36.20;33.40;;;26.80;46.40;;;;;;4970612;28;20506;-69
2022/07/18 08:50:06;;;;;;;31.10;29.03;;;26.90;45.80;;;;;;4969194;28;20589;-69
2022/07/18 08:52:35;;;;;;;33.60;31.30;;;27.00;45.80;;;;;;4970985;28;20539;-72
2022/07/18 08:55:03;;;;;;;33.70;31.60;;;27.00;45.70;;;;;;4969415;28;20474;-73
2022/07/18 08:57:30;;;;;;;33.67;31.57;;;27.20;45.40;;;;;;4967423;28;20465;-73
2022/07/18 08:59:57;;;;;;;35.87;33.70;;;27.30;45.30;;;;;;4968793;28;20528;-71
2022/07/18 09:02:26;;;;;;;32.23;30.20;;;27.30;45.10;;;;;;4968497;28;21109;-70
2022/07/18 09:04:53;;;;;;;32.10;29.90;;;27.40;44.70;;;;;;4969657;28;20969;-68
2022/07/18 09:07:31;;;;;;;31.87;29.47;;;27.40;44.70;;;;;;4965644;28;21055;-69
2022/07/18 09:10:00;;;;;;;31.90;29.53;;;27.50;44.40;;;;;;4968313;28;20523;-69
2022/07/18 09:12:29;;;;;;;31.43;29.23;;;27.50;44.60;;;;;;4968349;28;20921;-69
2022/07/18 09:14:56;;;;;;;32.53;30.43;;;27.60;43.90;;;;;;4969112;28;21148;-68
2022/07/18 09:17:26;;;;;;;31.70;29.60;;;27.80;43.50;;;;;;4962889;28;20452;-69
2022/07/18 09:20:01;;;;;;;34.67;32.30;;;27.80;43.10;;;;;;4970180;28;20566;-69
2022/07/18 09:22:31;;;;;;;31.43;29.40;;;27.70;43.20;;;;;;4968244;28;20975;-74
2022/07/18 09:25:07;;;;;;;30.77;28.77;;;27.80;43.10;;;;;;4969423;28;20546;-70
2022/07/18 09:27:36;;;;;;;30.90;29.10;;;27.80;42.70;;;;;;4965890;28;20486;-73
2022/07/18 09:30:22;;;;;;;30.90;28.90;;;27.90;42.50;;;;;;4965918;28;20494;-71
2022/07/18 09:32:52;;;;;;;34.50;31.70;;;28.00;42.10;;;;;;4969831;28;20491;-71
2022/07/18 09:35:21;;;;;;;34.00;32.00;;;28.00;42.00;;;;;;4969310;28;20459;-71
2022/07/18 09:38:12;;;;;;;32.90;30.90;;;28.20;41.50;;;;;;4969826;28;20528;-71
2022/07/18 09:40:41;;;;;;;32.80;30.60;;;28.30;40.60;;;;;;4965392;28;20546;-70
2022/07/18 09:43:10;;;;;;;32.80;30.70;;;28.40;39.80;;;;;;4968234;28;20467;-71
2022/07/18 09:45:39;;;;;;;33.60;31.50;;;28.60;39.20;;;;;;4966498;28;20961;-69
2022/07/18 09:48:08;;;;;;;33.60;31.23;;;28.60;39.10;;;;;;4963998;28;20533;-69
2022/07/18 09:50:37;;;;;;;31.57;29.60;;;28.60;38.80;;;;;;4968452;28;20546;-69
2022/07/18 09:53:12;;;;;;;30.93;28.43;;;28.70;38.70;;;;;;4966220;28;20455;-69
2022/07/18 09:55:48;;;;;;;30.53;28.73;;;28.80;37.70;;;;;;4969918;28;21039;-71
2022/07/18 09:58:18;;;;;;;30.53;28.53;;;28.80;37.50;;;;;;4966009;28;20490;-71
2022/07/18 10:00:46;;;;;;;34.70;32.83;;;28.70;37.60;;;;;;4967472;28;20994;-76
2022/07/18 10:03:14;;;;;;;31.27;28.93;;;28.80;37.50;;;;;;4966960;28;20965;-72
2022/07/18 10:05:41;;;;;;;33.77;31.73;;;29.00;37.30;;;;;;4969270;28;20545;-72
2022/07/18 10:08:12;;;;;;;30.87;28.87;;;29.20;36.80;;;;;;4968557;28;20517;-72
2022/07/18 10:10:40;;;;;;;31.10;29.10;;;29.20;37.50;;;;;;4965743;28;20554;-71
2022/07/18 10:13:08;;;;;;;30.90;29.00;;;29.20;38.40;;;;;;4966638;28;20634;-72
2022/07/18 10:15:37;;;;;;;34.00;31.70;;;29.30;35.80;;;;;;4966874;28;20546;-69
2022/07/18 10:18:07;;;;;;;33.30;31.20;;;29.30;36.00;;;;;;4964216;28;20558;-70
2022/07/18 10:20:36;;;;;;;32.97;30.67;;;29.20;35.80;;;;;;4963703;28;20503;-70
2022/07/18 10:23:16;;;;;;;37.63;35.70;;;29.20;35.90;;;;;;4966935;28;20471;-69
2022/07/18 10:25:43;;;;;;;33.43;31.03;;;29.30;35.60;;;;;;4970165;28;20549;-69
2022/07/18 10:28:12;;;;;;;32.13;30.20;;;29.40;35.10;;;;;;4966666;28;20915;-69
2022/07/18 10:30:45;;;;;;;30.90;29.10;;;29.50;35.00;;;;;;4969054;28;20962;-70
2022/07/18 10:33:41;;;;;;;34.10;32.00;;;29.60;35.50;;;;;;4969052;28;20467;-73
2022/07/18 10:36:14;;;;;;;31.10;29.30;;;29.70;36.20;;;;;;4968943;28;20518;-73
2022/07/18 10:39:07;;;;;;;30.33;28.43;;;29.80;35.50;;;;;;4968612;28;20487;-72
2022/07/18 10:41:34;;;;;;;30.20;28.40;;;29.80;34.90;;;;;;4966915;28;20458;-71
2022/07/18 10:44:01;;;;;;;30.70;28.80;;;29.80;35.50;;;;;;4971125;28;20454;-74
2022/07/18 10:47:05;;;;;;;32.30;30.20;;;29.70;35.20;;;;;;4968011;28;20479;-71
2022/07/18 10:50:07;;;;;;;30.13;28.13;;;29.80;37.50;;;;;;4970763;28;20489;-71
2022/07/18 10:52:57;;;;;;;30.90;28.90;;;30.00;35.10;;;;;;4970410;28;20465;-72
2022/07/18 10:55:30;;;;;;;31.07;29.17;;;30.00;35.10;;;;;;4968461;28;20541;-74
2022/07/18 10:58:20;;;;;;;32.93;31.07;;;30.20;35.00;;;;;;4971601;28;20538;-72
2022/07/18 11:00:51;;;;;;;32.47;30.67;;;30.40;34.80;;;;;;4965717;28;20456;-71
2022/07/18 11:03:27;;;;;;;33.03;30.77;;;30.50;34.10;;;;;;4972838;28;20455;-72
2022/07/18 11:05:55;;;;;;;29.67;27.87;;;30.60;35.30;;;;;;4967290;28;20559;-71
2022/07/18 11:08:25;;;;;;;30.80;28.70;;;30.70;33.30;;;;;;4970109;28;20490;-69
2022/07/18 11:11:14;;;;;;;32.93;31.00;;;30.80;33.60;;;;;;4971295;28;20467;-72
2022/07/18 11:13:49;;;;;;;35.73;33.93;;;31.00;33.10;;;;;;4970601;28;20459;-69
2022/07/18 11:16:19;;;;;;;30.10;28.23;;;31.00;33.90;;;;;;4960573;28;20498;-70
2022/07/18 11:19:20;;;;;;;36.20;34.30;;;31.00;33.20;;;;;;4972876;28;20571;-69
2022/07/18 11:21:56;;;;;;;32.37;30.57;;;31.20;31.60;;;;;;4960977;28;21184;-68
2022/07/18 11:24:23;;;;;;;30.53;28.80;;;31.20;30.80;;;;;;4970102;28;20517;-69
2022/07/18 11:26:51;;;;;;;30.27;28.57;;;31.30;30.50;;;;;;4969219;28;20497;-71
2022/07/18 11:29:22;;;;;;;32.50;30.60;;;31.30;30.60;;;;;;4971700;28;21052;-69
2022/07/18 11:31:51;;;;;;;30.20;28.23;;;31.30;31.50;;;;;;4970160;28;20473;-69
2022/07/18 11:34:19;;;;;;;31.03;29.03;;;31.30;31.80;;;;;;4968515;28;20896;-68
2022/07/18 11:36:48;;;;;;;29.30;27.60;;;31.30;31.60;;;;;;4970182;28;20557;-70
2022/07/18 11:39:16;;;;;;;33.30;31.40;;;31.20;31.30;;;;;;4971682;28;20510;-70
2022/07/18 11:41:43;;;;;;;31.20;29.20;;;31.20;30.60;;;;;;4968945;28;20467;-70
2022/07/18 11:44:26;;;;;;;29.43;27.73;;;31.30;31.30;;;;;;4965241;28;20462;-71
2022/07/18 11:47:06;;;;;;;28.60;26.93;;;31.30;30.70;;;;;;4968554;28;20565;-69
2022/07/18 11:49:33;;;;;;;32.40;30.60;;;31.40;31.30;;;;;;4971347;28;20483;-71
2022/07/18 11:52:00;;;;;;;29.13;27.43;;;31.50;31.30;;;;;;4969768;28;20459;-68
2022/07/18 11:54:28;;;;;;;29.80;28.10;;;31.60;30.60;;;;;;4968604;28;20542;-70
2022/07/18 11:56:56;;;;;;;33.00;31.00;;;31.60;30.40;;;;;;4969606;28;20806;-67
2022/07/18 11:59:35;;;;;;;29.63;27.83;;;31.60;31.10;;;;;;4964585;28;20479;-68
2022/07/18 12:02:03;;;;;;;30.67;28.87;;;31.70;29.60;;;;;;4961768;28;20575;-70
2022/07/18 12:04:30;;;;;;;29.17;27.30;;;31.70;31.10;;;;;;4964363;28;21220;-70
2022/07/18 12:07:18;;;;;;;32.73;30.77;;;31.70;29.00;;;;;;4964464;28;20486;-70
2022/07/18 12:09:46;;;;;;;32.43;30.63;;;31.80;30.40;;;;;;4966417;28;20478;-70
2022/07/18 12:12:14;;;;;;;28.60;27.00;;;31.70;29.50;;;;;;4966455;28;20454;-70
2022/07/18 12:14:43;;;;;;;32.03;30.03;;;31.60;28.00;;;;;;4968843;28;20463;-71
2022/07/18 12:17:10;;;;;;;31.97;30.03;;;31.60;28.00;;;;;;4966952;28;21030;-70
2022/07/18 12:19:39;;;;;;;36.90;34.90;;;31.60;29.50;;;;;;4965315;28;22841;-70
2022/07/18 12:22:08;;;;;;;33.73;31.93;;;31.80;30.20;;;;;;4960962;28;20463;-70
2022/07/18 12:24:39;;;;;;;32.40;30.47;;;32.00;29.60;;;;;;4963109;28;20459;-70
2022/07/18 12:27:27;;;;;;;30.03;28.03;;;32.00;30.00;;;;;;4964779;28;20467;-70
2022/07/18 12:30:06;;;;;;;31.90;30.10;;;32.10;31.30;;;;;;4959408;28;20478;-70
2022/07/18 12:32:46;;;;;;;38.30;36.10;;;32.00;31.50;;;;;;4967338;28;20534;-69
2022/07/18 12:35:16;;;;;;;35.90;33.90;;;32.00;30.40;;;;;;4959438;28;20463;-70
2022/07/18 12:37:53;;;;;;;30.47;28.67;;;32.10;29.70;;;;;;4957611;28;20554;-70
2022/07/18 12:40:20;;;;;;;33.77;31.77;;;32.20;30.70;;;;;;4962283;28;20462;-71